createdAt,value
2018-10-18T00:01:51.740Z,21.97
2018-10-18T00:04:21.152Z,22.87
2018-10-18T00:06:50.394Z,23.77
2018-10-18T00:09:19.121Z,23.47
2018-10-18T00:11:47.865Z,24.27
2018-10-18T00:14:17.056Z,25.13
2018-10-18T00:16:45.653Z,24.10
2018-10-18T00:19:14.343Z,25.37
2018-10-18T00:21:43.017Z,21.63
2018-10-18T00:24:11.807Z,23.03
2018-10-18T00:26:40.381Z,22.57
2018-10-18T00:29:09.061Z,24.40
2018-10-18T00:31:37.740Z,22.93
2018-10-18T00:34:06.444Z,21.63
2018-10-18T00:36:35.105Z,22.73
2018-10-18T00:39:05.054Z,22.13
2018-10-18T00:41:33.725Z,22.60
2018-10-18T00:44:02.444Z,22.47
2018-10-18T00:46:31.134Z,22.40
2018-10-18T00:48:59.783Z,22.90
2018-10-18T00:51:28.458Z,23.50
2018-10-18T00:53:57.138Z,22.90
2018-10-18T00:56:25.804Z,22.23
2018-10-18T00:58:54.505Z,23.97
2018-10-18T01:01:23.170Z,22.73
2018-10-18T01:03:51.866Z,22.20
2018-10-18T01:06:20.512Z,24.33
2018-10-18T01:08:49.500Z,22.87
2018-10-18T01:11:18.634Z,20.53
2018-10-18T01:13:47.420Z,22.43
2018-10-18T01:16:16.065Z,24.07
2018-10-18T01:18:44.796Z,23.67
2018-10-18T01:21:13.438Z,22.87
2018-10-18T01:23:42.128Z,22.83
2018-10-18T01:26:10.804Z,23.20
2018-10-18T01:28:39.489Z,21.83
2018-10-18T01:31:08.167Z,20.97
2018-10-18T01:33:36.861Z,21.80
2018-10-18T01:36:05.787Z,23.20
2018-10-18T01:38:34.403Z,21.60
2018-10-18T01:41:03.095Z,22.47
2018-10-18T01:43:31.782Z,22.57
2018-10-18T01:46:00.432Z,23.13
2018-10-18T01:48:29.153Z,22.97
2018-10-18T01:50:57.833Z,22.23
2018-10-18T01:53:26.635Z,22.13
2018-10-18T01:55:55.338Z,21.87
2018-10-18T01:58:24.001Z,21.57
2018-10-18T02:00:52.671Z,20.97
2018-10-18T02:03:21.350Z,21.50
2018-10-18T02:05:50.002Z,20.37
2018-10-18T02:08:18.813Z,20.53
2018-10-18T02:10:47.365Z,21.90
2018-10-18T02:13:16.044Z,20.60
2018-10-18T02:15:44.717Z,22.93
2018-10-18T02:18:13.525Z,20.37
2018-10-18T02:20:42.188Z,21.27
2018-10-18T02:23:10.883Z,21.27
2018-10-18T02:25:39.556Z,21.63
2018-10-18T02:28:08.247Z,23.20
2018-10-18T02:30:36.904Z,21.57
2018-10-18T02:33:05.609Z,23.13
2018-10-18T02:35:34.245Z,22.03
2018-10-18T02:38:02.923Z,22.00
2018-10-18T02:40:31.579Z,21.07
2018-10-18T02:43:00.262Z,21.93
2018-10-18T02:45:28.982Z,21.67
2018-10-18T02:47:57.758Z,21.73
2018-10-18T02:50:26.418Z,21.43
2018-10-18T02:52:55.096Z,21.83
2018-10-18T02:55:23.928Z,23.03
2018-10-18T02:57:52.618Z,21.93
2018-10-18T03:00:21.298Z,21.13
2018-10-18T03:02:50.005Z,22.30
2018-10-18T03:05:18.654Z,22.17
2018-10-18T03:07:47.325Z,20.87
2018-10-18T03:10:15.975Z,21.30
2018-10-18T03:12:44.714Z,20.17
2018-10-18T03:15:13.383Z,20.70
2018-10-18T03:17:42.086Z,21.93
2018-10-18T03:20:10.794Z,21.07
2018-10-18T03:22:39.479Z,22.40
2018-10-18T03:25:08.976Z,21.90
2018-10-18T03:27:37.811Z,22.30
2018-10-18T03:30:07.298Z,21.83
2018-10-18T03:32:36.014Z,20.70
2018-10-18T03:35:05.307Z,21.17
2018-10-18T03:37:34.034Z,24.00
2018-10-18T03:40:03.661Z,22.23
2018-10-18T03:42:32.348Z,22.83
2018-10-18T03:45:01.082Z,21.33
2018-10-18T03:47:29.755Z,21.87
2018-10-18T03:49:58.422Z,23.83
2018-10-18T03:52:27.104Z,22.27
2018-10-18T03:54:55.798Z,21.70
2018-10-18T03:57:24.467Z,22.43
2018-10-18T03:59:53.200Z,21.60
2018-10-18T04:02:21.858Z,22.30
2018-10-18T04:04:50.505Z,22.03
2018-10-18T04:07:19.238Z,22.17
2018-10-18T04:09:47.901Z,21.37
2018-10-18T04:12:16.680Z,21.93
2018-10-18T04:14:45.415Z,20.93
2018-10-18T04:17:14.092Z,22.47
2018-10-18T04:19:42.832Z,22.67
2018-10-18T04:22:11.498Z,23.07
2018-10-18T04:24:40.338Z,23.10
2018-10-18T04:27:09.029Z,21.83
2018-10-18T04:29:37.714Z,24.53
2018-10-18T04:32:06.808Z,22.10
2018-10-18T04:34:35.471Z,20.53
2018-10-18T04:37:04.205Z,23.37
2018-10-18T04:39:32.850Z,24.90
2018-10-18T04:42:01.580Z,25.93
2018-10-18T04:44:30.220Z,22.73
2018-10-18T04:46:58.938Z,21.33
2018-10-18T04:49:27.605Z,23.87
2018-10-18T04:51:56.278Z,23.40
2018-10-18T04:54:24.949Z,22.30
2018-10-18T04:56:53.825Z,22.03
2018-10-18T04:59:22.435Z,23.97
2018-10-18T05:01:51.154Z,23.50
2018-10-18T05:04:19.813Z,22.80
2018-10-18T05:06:48.503Z,23.27
2018-10-18T05:09:17.238Z,22.00
2018-10-18T05:11:45.934Z,21.43
2018-10-18T05:14:15.329Z,23.90
2018-10-18T05:16:44.010Z,21.43
2018-10-18T05:19:12.883Z,22.17
2018-10-18T05:21:41.419Z,21.10
2018-10-18T05:24:10.132Z,20.83
2018-10-18T05:26:45.515Z,19.97
2018-10-18T05:29:14.203Z,19.90
2018-10-18T05:31:42.969Z,21.20
2018-10-18T05:34:11.557Z,20.60
2018-10-18T05:36:40.202Z,21.00
2018-10-18T05:39:10.510Z,20.87
2018-10-18T05:41:39.167Z,22.20
2018-10-18T05:44:07.882Z,20.87
2018-10-18T05:46:36.616Z,21.57
2018-10-18T05:49:05.328Z,22.30
2018-10-18T05:51:34.001Z,22.27
2018-10-18T05:54:02.815Z,22.67
2018-10-18T05:56:31.410Z,22.10
2018-10-18T05:59:00.123Z,24.07
2018-10-18T06:01:28.880Z,22.87
2018-10-18T06:03:57.549Z,24.50
2018-10-18T06:06:26.218Z,22.30
2018-10-18T06:08:54.902Z,21.90
2018-10-18T06:11:28.839Z,21.70
2018-10-18T06:13:57.552Z,25.50
2018-10-18T06:16:32.890Z,22.00
2018-10-18T06:19:02.107Z,21.77
2018-10-18T06:21:31.152Z,21.57
2018-10-18T06:23:59.853Z,20.87
2018-10-18T06:26:28.603Z,21.77
2018-10-18T06:28:57.343Z,23.13
2018-10-18T06:31:26.013Z,21.07
2018-10-18T06:33:54.715Z,21.90
2018-10-18T06:36:23.403Z,21.97
2018-10-18T06:38:52.102Z,21.17
2018-10-18T06:41:20.779Z,23.37
2018-10-18T06:43:49.508Z,21.07
2018-10-18T06:46:18.191Z,22.97
2018-10-18T06:48:46.986Z,22.57
2018-10-18T06:51:15.698Z,23.27
2018-10-18T06:53:44.751Z,22.47
2018-10-18T06:56:13.436Z,21.93
2018-10-18T06:58:42.110Z,22.40
2018-10-18T07:01:10.796Z,23.53
2018-10-18T07:03:39.493Z,23.97
2018-10-18T07:06:08.196Z,22.60
2018-10-18T07:08:36.928Z,23.83
2018-10-18T07:11:05.927Z,22.67
2018-10-18T07:13:34.618Z,22.37
2018-10-18T07:16:03.607Z,22.77
2018-10-18T07:18:32.316Z,22.40
2018-10-18T07:21:01.054Z,22.20
2018-10-18T07:23:29.786Z,23.10
2018-10-18T07:25:58.473Z,21.47
2018-10-18T07:28:27.171Z,24.57
2018-10-18T07:30:55.863Z,23.40
2018-10-18T07:33:24.558Z,23.23
2018-10-18T07:35:53.266Z,23.90
2018-10-18T07:38:21.969Z,26.53
2018-10-18T07:40:50.684Z,23.87
2018-10-18T07:43:19.415Z,21.50
2018-10-18T07:45:48.127Z,21.67
2018-10-18T07:48:16.859Z,22.43
2018-10-18T07:50:45.487Z,21.50
2018-10-18T07:53:15.036Z,22.43
2018-10-18T07:55:43.684Z,23.90
2018-10-18T07:58:12.358Z,24.20
2018-10-18T08:00:41.092Z,23.73
2018-10-18T08:03:09.824Z,23.57
2018-10-18T08:05:38.620Z,26.23
2018-10-18T08:08:08.352Z,23.70
2018-10-18T08:10:37.014Z,27.00
2018-10-18T08:13:05.829Z,23.60
2018-10-18T08:15:34.781Z,24.73
2018-10-18T08:18:05.083Z,24.33
2018-10-18T08:20:33.748Z,24.60
2018-10-18T08:23:02.461Z,23.70
2018-10-18T08:25:31.126Z,25.27
2018-10-18T08:27:59.809Z,24.67
2018-10-18T08:30:28.478Z,26.03
2018-10-18T08:32:57.151Z,26.87
2018-10-18T08:35:25.818Z,30.97
2018-10-18T08:37:54.565Z,29.53
2018-10-18T08:40:23.232Z,28.87
2018-10-18T08:42:51.997Z,28.57
2018-10-18T08:45:20.689Z,28.47
2018-10-18T08:47:49.351Z,29.43
2018-10-18T08:50:18.079Z,29.53
2018-10-18T08:52:46.794Z,29.17
2018-10-18T08:55:15.499Z,32.10
2018-10-18T08:57:44.310Z,28.60
2018-10-18T09:00:13.648Z,30.40
2018-10-18T09:02:43.092Z,30.63
2018-10-18T09:05:11.939Z,30.53
2018-10-18T09:07:40.651Z,30.30
2018-10-18T09:10:09.720Z,32.13
2018-10-18T09:12:38.430Z,30.23
2018-10-18T09:15:08.270Z,30.17
2018-10-18T09:17:37.161Z,31.67
2018-10-18T09:20:06.313Z,30.47
2018-10-18T09:22:35.029Z,33.73
2018-10-18T09:25:03.781Z,33.43
2018-10-18T09:27:32.527Z,32.57
2018-10-18T09:30:01.208Z,32.60
2018-10-18T09:32:30.851Z,31.80
2018-10-18T09:35:01.553Z,32.40
2018-10-18T09:37:30.258Z,32.67
2018-10-18T09:39:58.941Z,33.03
2018-10-18T09:42:27.631Z,33.73
2018-10-18T09:44:56.354Z,32.00
2018-10-18T09:47:25.043Z,32.53
2018-10-18T09:49:53.756Z,33.03
2018-10-18T09:52:22.442Z,32.50
2018-10-18T09:54:51.240Z,31.17
2018-10-18T09:57:19.966Z,34.90
2018-10-18T09:59:48.694Z,30.97
2018-10-18T10:02:22.627Z,32.77
2018-10-18T10:04:51.323Z,30.47
2018-10-18T10:07:20.070Z,33.20
2018-10-18T10:09:48.841Z,31.77
2018-10-18T10:12:17.872Z,31.07
2018-10-18T10:14:46.651Z,31.63
2018-10-18T10:17:15.460Z,32.47
2018-10-18T10:19:44.120Z,31.50
2018-10-18T10:22:12.833Z,29.97
2018-10-18T10:24:41.595Z,32.80
2018-10-18T10:27:10.279Z,32.37
2018-10-18T10:29:38.987Z,30.93
2018-10-18T10:32:07.674Z,31.17
2018-10-18T10:34:36.328Z,30.73
2018-10-18T10:37:05.337Z,30.33
2018-10-18T10:39:34.005Z,30.43
2018-10-18T10:42:03.311Z,30.00
2018-10-18T10:44:32.025Z,30.53
2018-10-18T10:47:00.752Z,27.83
2018-10-18T10:49:29.439Z,31.13
2018-10-18T10:51:58.164Z,29.43
2018-10-18T10:54:26.844Z,28.67
2018-10-18T10:56:55.644Z,27.87
2018-10-18T10:59:24.362Z,27.53
2018-10-18T11:01:53.096Z,27.63
2018-10-18T11:04:21.778Z,27.53
2018-10-18T11:06:50.479Z,29.00
2018-10-18T11:09:19.248Z,30.70
2018-10-18T11:11:48.034Z,29.90
2018-10-18T11:14:16.781Z,29.90
2018-10-18T11:16:45.451Z,28.77
2018-10-18T11:19:14.215Z,29.63
2018-10-18T11:21:42.994Z,29.13
2018-10-18T11:24:11.718Z,30.20
2018-10-18T11:26:40.363Z,30.53
2018-10-18T11:29:09.075Z,29.67
2018-10-18T11:31:37.844Z,31.10
2018-10-18T11:34:07.158Z,29.20
2018-10-18T11:36:35.865Z,28.50
2018-10-18T11:39:06.266Z,30.07
2018-10-18T11:41:34.970Z,26.87
2018-10-18T11:44:03.772Z,28.93
2018-10-18T11:46:32.478Z,29.57
2018-10-18T11:49:02.146Z,29.33
2018-10-18T11:51:30.896Z,27.50
2018-10-18T11:53:59.633Z,29.63
2018-10-18T11:56:28.298Z,26.30
2018-10-18T11:58:56.990Z,26.63
2018-10-18T12:01:25.873Z,30.57
2018-10-18T12:03:54.528Z,25.97
2018-10-18T12:06:23.232Z,28.20
2018-10-18T12:08:51.885Z,27.50
2018-10-18T12:11:20.650Z,29.40
2018-10-18T12:13:49.324Z,26.53
2018-10-18T12:16:18.940Z,25.23
2018-10-18T12:18:47.614Z,25.60
2018-10-18T12:21:16.331Z,24.57
2018-10-18T12:23:45.028Z,25.10
2018-10-18T12:26:13.894Z,23.33
2018-10-18T12:28:42.568Z,22.20
2018-10-18T12:31:11.279Z,21.30
2018-10-18T12:33:39.945Z,20.27
2018-10-18T12:36:08.712Z,24.77
2018-10-18T12:38:37.376Z,24.90
2018-10-18T12:41:06.257Z,24.40
2018-10-18T12:43:34.827Z,23.50
2018-10-18T12:46:03.558Z,23.30
2018-10-18T12:48:32.266Z,23.07
2018-10-18T12:51:01.427Z,22.57
2018-10-18T12:53:30.126Z,23.67
2018-10-18T12:55:58.816Z,23.80
2018-10-18T12:58:27.535Z,21.20
2018-10-18T13:00:56.264Z,21.40
2018-10-18T13:03:24.943Z,20.63
2018-10-18T13:05:53.678Z,21.27
2018-10-18T13:08:22.402Z,18.37
2018-10-18T13:10:51.123Z,18.07
2018-10-18T13:13:19.798Z,17.83
2018-10-18T13:15:48.511Z,18.23
2018-10-18T13:18:17.233Z,19.10
2018-10-18T13:20:45.902Z,20.10
2018-10-18T13:23:14.890Z,19.43
2018-10-18T13:25:43.570Z,18.30
2018-10-18T13:28:12.247Z,18.57
2018-10-18T13:30:40.934Z,16.77
2018-10-18T13:33:09.617Z,17.83
2018-10-18T13:35:38.335Z,17.83
2018-10-18T13:38:07.149Z,17.77
2018-10-18T13:40:35.852Z,18.47
2018-10-18T13:43:04.676Z,15.90
2018-10-18T13:45:33.429Z,17.50
2018-10-18T13:48:02.475Z,21.10
2018-10-18T13:50:31.239Z,19.60
2018-10-18T13:52:59.972Z,20.50
2018-10-18T13:55:28.796Z,18.40
2018-10-18T13:57:57.528Z,18.87
2018-10-18T14:00:27.941Z,18.63
2018-10-18T14:02:56.829Z,17.50
2018-10-18T14:05:26.170Z,19.07
2018-10-18T14:07:55.762Z,17.93
2018-10-18T14:10:24.547Z,17.13
2018-10-18T14:12:53.823Z,17.73
2018-10-18T14:15:22.649Z,16.93
2018-10-18T14:17:51.521Z,17.17
2018-10-18T14:20:20.203Z,17.33
2018-10-18T14:22:48.962Z,16.67
2018-10-18T14:25:17.754Z,17.67
2018-10-18T14:27:46.545Z,16.57
2018-10-18T14:30:15.490Z,18.63
2018-10-18T14:32:44.334Z,17.73
2018-10-18T14:35:13.334Z,17.00
2018-10-18T14:37:42.102Z,16.87
2018-10-18T14:40:11.959Z,17.70
2018-10-18T14:42:40.752Z,17.27
2018-10-18T14:45:09.851Z,16.67
2018-10-18T14:50:16.900Z,18.43
2018-10-18T14:52:45.466Z,17.80
2018-10-18T14:55:14.223Z,21.37
2018-10-18T14:57:43.148Z,17.60
2018-10-18T15:00:13.459Z,17.77
2018-10-18T15:02:42.427Z,18.17
2018-10-18T15:05:12.327Z,18.00
2018-10-18T15:07:41.504Z,16.67
2018-10-18T15:10:11.826Z,17.70
2018-10-18T15:12:40.832Z,18.67
2018-10-18T15:15:10.846Z,17.40
2018-10-18T15:17:39.597Z,18.80
2018-10-18T15:20:15.691Z,17.27
2018-10-18T15:22:44.447Z,17.30
2018-10-18T15:25:13.801Z,16.07
2018-10-18T15:27:43.093Z,16.30
2018-10-18T15:30:12.372Z,16.43
2018-10-18T15:32:41.233Z,17.53
2018-10-18T15:35:11.127Z,17.57
2018-10-18T15:37:40.215Z,18.73
2018-10-18T15:40:10.538Z,16.67
2018-10-18T15:42:39.456Z,16.37
2018-10-18T15:45:09.023Z,17.27
2018-10-18T15:47:38.043Z,16.77
2018-10-18T15:50:08.256Z,17.07
2018-10-18T15:52:37.280Z,16.90
2018-10-18T15:55:06.362Z,16.97
2018-10-18T15:57:35.141Z,16.50
2018-10-18T16:00:04.145Z,17.30
2018-10-18T16:02:32.983Z,18.53
2018-10-18T16:05:01.903Z,16.73
2018-10-18T16:07:30.848Z,19.37
2018-10-18T16:09:59.823Z,19.37
2018-10-18T16:12:28.634Z,23.67
2018-10-18T16:14:57.439Z,18.13
2018-10-18T16:17:26.205Z,18.13
2018-10-18T16:19:55.089Z,17.97
2018-10-18T16:22:23.908Z,16.83
2018-10-18T16:24:52.765Z,18.07
2018-10-18T16:27:21.626Z,18.43
2018-10-18T16:29:50.480Z,18.00
2018-10-18T16:32:19.474Z,18.23
2018-10-18T16:34:48.208Z,18.57
2018-10-18T16:37:17.677Z,18.43
2018-10-18T16:39:46.521Z,19.13
2018-10-18T16:42:15.387Z,18.40
2018-10-18T16:44:44.205Z,18.80
2018-10-18T16:47:13.064Z,20.17
2018-10-18T16:49:42.013Z,19.77
2018-10-18T16:52:10.938Z,21.27
2018-10-18T16:54:39.819Z,22.77
2018-10-18T16:57:08.680Z,22.53
2018-10-18T16:59:37.467Z,24.03
2018-10-18T17:02:06.593Z,26.70
2018-10-18T17:04:35.502Z,23.83
2018-10-18T17:07:04.480Z,23.17
2018-10-18T17:09:33.296Z,23.10
2018-10-18T17:12:04.502Z,21.60
2018-10-18T17:14:33.255Z,24.17
2018-10-18T17:17:02.593Z,23.63
2018-10-18T17:19:31.581Z,24.67
2018-10-18T17:22:00.484Z,25.03
2018-10-18T17:24:29.245Z,24.97
2018-10-18T17:26:58.100Z,24.53
2018-10-18T17:29:26.849Z,25.57
2018-10-18T17:31:55.595Z,24.03
2018-10-18T17:34:24.445Z,24.87
2018-10-18T17:36:53.269Z,26.07
2018-10-18T17:39:22.036Z,25.97
2018-10-18T17:41:50.816Z,30.00
2018-10-18T17:44:19.589Z,27.20
2018-10-18T17:46:48.343Z,27.50
2018-10-18T17:49:17.224Z,27.07
2018-10-18T17:51:46.032Z,29.40
2018-10-18T17:54:14.869Z,27.93
2018-10-18T17:56:43.710Z,28.93
2018-10-18T17:59:13.255Z,27.60
2018-10-18T18:01:42.618Z,28.27
2018-10-18T18:06:55.003Z,29.07
2018-10-18T18:09:23.876Z,29.53
2018-10-18T18:11:52.704Z,29.93
2018-10-18T18:14:21.480Z,30.03
2018-10-18T18:16:50.321Z,29.67
2018-10-18T18:19:19.124Z,28.30
2018-10-18T18:21:47.881Z,29.37
2018-10-18T18:24:17.339Z,28.50
2018-10-18T18:26:46.160Z,28.73
2018-10-18T18:29:14.949Z,25.63
2018-10-18T18:31:44.272Z,25.37
2018-10-18T18:34:13.033Z,26.40
2018-10-18T18:36:41.799Z,26.57
2018-10-18T18:39:11.458Z,27.10
2018-10-18T18:41:40.306Z,28.33
2018-10-18T18:44:09.118Z,27.30
2018-10-18T18:46:42.551Z,26.40
2018-10-18T18:49:11.464Z,26.57
2018-10-18T18:51:40.320Z,27.93
2018-10-18T18:54:09.258Z,28.03
2018-10-18T18:56:38.004Z,29.97
2018-10-18T18:59:07.772Z,30.37
2018-10-18T19:01:36.553Z,30.20
2018-10-18T19:04:05.601Z,29.43
2018-10-18T19:06:34.495Z,32.13
2018-10-18T19:09:03.641Z,31.77
2018-10-18T19:11:32.391Z,32.40
2018-10-18T19:14:01.222Z,30.43
2018-10-18T19:19:05.843Z,31.73
2018-10-18T19:21:34.668Z,33.73
2018-10-18T19:24:03.571Z,34.63
2018-10-18T19:26:32.332Z,35.43
2018-10-18T19:29:01.212Z,35.23
2018-10-18T19:31:29.961Z,35.97
2018-10-18T19:33:58.744Z,34.90
2018-10-18T19:36:27.508Z,34.63
2018-10-18T19:38:56.415Z,34.00
2018-10-18T19:41:25.210Z,32.83
2018-10-18T19:43:53.999Z,33.80
2018-10-18T19:46:22.897Z,34.40
2018-10-18T19:48:51.760Z,33.37
2018-10-18T19:51:20.471Z,33.37
2018-10-18T19:53:49.225Z,35.77
2018-10-18T19:56:17.969Z,36.43
2018-10-18T19:58:46.761Z,34.77
2018-10-18T20:01:15.520Z,34.00
2018-10-18T20:03:44.332Z,36.33
2018-10-18T20:06:13.105Z,37.37
2018-10-18T20:08:42.006Z,37.77
2018-10-18T20:11:10.836Z,40.37
2018-10-18T20:13:39.697Z,40.10
2018-10-18T20:16:08.594Z,37.13
2018-10-18T20:18:37.412Z,38.07
2018-10-18T20:21:06.260Z,36.77
2018-10-18T20:23:35.020Z,41.87
2018-10-18T20:26:04.065Z,42.17
2018-10-18T20:28:32.688Z,39.83
2018-10-18T20:31:01.423Z,38.77
2018-10-18T20:33:30.290Z,40.80
2018-10-18T20:35:59.076Z,39.80
2018-10-18T20:38:27.855Z,40.40
2018-10-18T20:40:56.722Z,41.23
2018-10-18T20:43:25.633Z,40.50
2018-10-18T20:45:54.471Z,40.87
2018-10-18T20:48:23.248Z,40.17
2018-10-18T20:50:52.055Z,41.40
2018-10-18T20:53:20.816Z,41.27
2018-10-18T20:55:49.556Z,41.43
2018-10-18T20:58:18.293Z,43.47
2018-10-18T21:00:47.074Z,42.40
2018-10-18T21:03:15.856Z,44.03
2018-10-18T21:05:44.677Z,45.70
2018-10-18T21:08:13.666Z,41.70
2018-10-18T21:10:42.489Z,42.40
2018-10-18T21:13:11.274Z,41.53
2018-10-18T21:15:40.022Z,42.53
2018-10-18T21:18:08.845Z,42.43
2018-10-18T21:20:37.618Z,48.13
2018-10-18T21:23:06.766Z,41.40
2018-10-18T21:25:35.568Z,44.33
2018-10-18T21:28:04.332Z,44.77
2018-10-18T21:30:33.098Z,46.10
2018-10-18T21:33:01.932Z,43.77
2018-10-18T21:35:30.661Z,42.43
2018-10-18T21:37:59.466Z,46.67
2018-10-18T21:40:28.238Z,45.73
2018-10-18T21:42:56.979Z,44.33
2018-10-18T21:45:25.764Z,46.80
2018-10-18T21:47:54.642Z,45.67
2018-10-18T21:50:23.363Z,44.93
2018-10-18T21:52:58.763Z,50.33
2018-10-18T21:55:27.472Z,46.07
2018-10-18T21:57:56.243Z,49.37
2018-10-18T22:00:25.056Z,48.33
2018-10-18T22:02:53.886Z,47.30
2018-10-18T22:05:22.598Z,46.73
2018-10-18T22:07:51.332Z,45.00
2018-10-18T22:10:20.070Z,47.77
2018-10-18T22:12:48.839Z,48.77
2018-10-18T22:15:17.553Z,48.33
2018-10-18T22:17:46.324Z,48.77
2018-10-18T22:20:15.085Z,50.20
2018-10-18T22:22:43.878Z,47.83
2018-10-18T22:25:12.672Z,46.73
2018-10-18T22:27:41.458Z,47.10
2018-10-18T22:30:10.236Z,49.87
2018-10-18T22:32:39.089Z,47.30
2018-10-18T22:35:07.892Z,45.83
2018-10-18T22:37:36.757Z,50.40
2018-10-18T22:40:06.356Z,48.53
2018-10-18T22:42:35.148Z,46.73
2018-10-18T22:45:04.043Z,45.83
2018-10-18T22:47:32.806Z,46.90
2018-10-18T22:50:01.603Z,48.13
2018-10-18T22:52:30.364Z,48.77
2018-10-18T22:54:59.148Z,50.43
2018-10-18T22:57:27.924Z,46.63
2018-10-18T22:59:56.715Z,46.33
2018-10-18T23:02:25.484Z,46.50
2018-10-18T23:04:54.253Z,47.43
2018-10-18T23:07:23.039Z,48.13
2018-10-18T23:09:51.828Z,48.87
2018-10-18T23:12:20.611Z,55.33
2018-10-18T23:14:49.364Z,53.97
2018-10-18T23:17:18.148Z,49.33
2018-10-18T23:19:46.889Z,48.73
2018-10-18T23:22:15.678Z,47.30
2018-10-18T23:24:44.458Z,52.20
2018-10-18T23:27:12.427Z,52.13
2018-10-18T23:29:41.121Z,52.67
2018-10-18T23:32:10.013Z,51.43
2018-10-18T23:34:38.785Z,51.93
2018-10-18T23:37:07.572Z,47.87
2018-10-18T23:39:36.308Z,49.53
2018-10-18T23:42:05.136Z,51.67
2018-10-18T23:44:33.972Z,55.80
2018-10-18T23:47:03.279Z,55.50
2018-10-18T23:49:32.035Z,57.60
2018-10-18T23:52:00.800Z,55.20
2018-10-18T23:54:29.558Z,56.30
2018-10-18T23:56:58.377Z,64.10
2018-10-18T23:59:27.100Z,60.07
